createdAt,value
2023-04-14T00:00:10.589Z,24.53
2023-04-14T00:02:58.853Z,27.83
2023-04-14T00:05:34.345Z,28.27
2023-04-14T00:08:03.498Z,29.43
2023-04-14T00:10:32.050Z,24.13
2023-04-14T00:13:02.211Z,25.07
2023-04-14T00:15:33.898Z,26.43
2023-04-14T00:18:04.872Z,23.83
2023-04-14T00:20:33.341Z,25.67
2023-04-14T00:23:02.165Z,28.57
2023-04-14T00:25:31.103Z,25.13
2023-04-14T00:27:59.573Z,22.23
2023-04-14T00:30:32.018Z,26.00
2023-04-14T00:33:02.372Z,26.43
2023-04-14T00:35:31.850Z,30.50
2023-04-14T00:38:00.031Z,25.77
2023-04-14T00:40:29.831Z,30.60
2023-04-14T00:42:58.824Z,32.30
2023-04-14T00:45:27.754Z,32.47
2023-04-14T00:47:55.997Z,34.57
2023-04-14T00:50:27.677Z,47.20
2023-04-14T00:52:57.353Z,38.50
2023-04-14T00:55:25.927Z,38.97
2023-04-14T00:57:55.137Z,37.83
2023-04-14T01:00:24.469Z,38.50
2023-04-14T01:02:54.107Z,29.57
2023-04-14T01:05:23.482Z,37.90
2023-04-14T01:07:52.026Z,38.93
2023-04-14T01:10:20.245Z,36.27
2023-04-14T01:13:33.808Z,35.80
2023-04-14T01:16:05.915Z,34.93
2023-04-14T01:18:52.899Z,36.53
2023-04-14T01:21:36.329Z,31.97
2023-04-14T01:24:10.531Z,32.57
2023-04-14T01:26:39.842Z,28.47
2023-04-14T01:29:45.165Z,31.17
2023-04-14T01:32:16.231Z,28.47
2023-04-14T01:35:05.979Z,30.80
2023-04-14T01:37:37.651Z,34.93
2023-04-14T01:40:11.872Z,34.93
2023-04-14T01:42:47.919Z,33.93
2023-04-14T01:45:25.868Z,33.80
2023-04-14T01:47:54.807Z,35.50
2023-04-14T01:50:23.154Z,35.10
2023-04-14T01:52:54.663Z,36.03
2023-04-14T01:55:24.321Z,37.17
2023-04-14T01:57:58.316Z,39.17
2023-04-14T02:00:27.513Z,43.10
2023-04-14T02:02:56.455Z,39.90
2023-04-14T02:05:25.452Z,40.40
2023-04-14T02:07:55.447Z,39.80
2023-04-14T02:10:24.300Z,34.50
2023-04-14T02:12:58.078Z,37.70
2023-04-14T02:15:44.211Z,38.30
2023-04-14T02:18:12.551Z,37.03
2023-04-14T02:20:45.350Z,34.07
2023-04-14T02:23:31.295Z,33.80
2023-04-14T02:26:16.554Z,32.27
2023-04-14T02:29:06.686Z,30.53
2023-04-14T02:31:37.307Z,36.30
2023-04-14T02:34:06.404Z,35.37
2023-04-14T02:36:47.142Z,39.73
2023-04-14T02:39:21.845Z,36.03
2023-04-14T02:42:03.659Z,36.23
2023-04-14T02:44:38.822Z,41.80
2023-04-14T02:47:09.493Z,33.80
2023-04-14T02:49:42.718Z,35.83
2023-04-14T02:52:16.397Z,29.20
2023-04-14T02:54:50.352Z,27.37
2023-04-14T02:57:18.702Z,31.80
2023-04-14T02:59:47.790Z,25.47
2023-04-14T03:02:19.484Z,22.70
2023-04-14T03:04:49.816Z,20.00
2023-04-14T03:07:18.452Z,15.53
2023-04-14T03:09:49.669Z,16.40
2023-04-14T03:12:21.705Z,18.03
2023-04-14T03:14:50.281Z,19.03
2023-04-14T03:17:21.510Z,16.37
2023-04-14T03:19:50.315Z,17.43
2023-04-14T03:22:20.905Z,18.27
2023-04-14T03:24:51.181Z,16.13
2023-04-14T03:27:23.105Z,17.17
2023-04-14T03:29:55.856Z,17.93
2023-04-14T03:32:26.495Z,17.80
2023-04-14T03:34:57.543Z,20.37
2023-04-14T03:37:29.309Z,22.03
2023-04-14T03:40:01.515Z,27.73
2023-04-14T03:42:30.861Z,28.63
2023-04-14T03:45:02.911Z,33.10
2023-04-14T03:47:32.004Z,31.30
2023-04-14T03:50:05.389Z,32.63
2023-04-14T03:52:35.804Z,29.20
2023-04-14T03:55:07.076Z,28.47
2023-04-14T03:57:37.299Z,28.80
2023-04-14T04:00:09.081Z,30.40
2023-04-14T04:02:58.163Z,22.03
2023-04-14T04:05:26.801Z,26.33
2023-04-14T04:07:56.963Z,22.20
2023-04-14T04:10:25.461Z,21.13
2023-04-14T04:12:54.385Z,14.87
2023-04-14T04:15:22.660Z,19.20
2023-04-14T04:17:53.714Z,16.67
2023-04-14T04:20:22.974Z,16.17
2023-04-14T04:22:55.763Z,17.17
2023-04-14T04:25:24.425Z,17.67
2023-04-14T04:27:55.526Z,16.87
2023-04-14T04:30:24.662Z,18.20
2023-04-14T04:32:56.462Z,15.63
2023-04-14T04:35:29.967Z,15.80
2023-04-14T04:38:01.221Z,16.53
2023-04-14T04:40:38.966Z,15.87
2023-04-14T04:43:09.777Z,20.43
2023-04-14T04:46:09.589Z,14.77
2023-04-14T04:48:37.760Z,13.87
2023-04-14T04:51:06.502Z,15.27
2023-04-14T04:53:34.542Z,15.90
2023-04-14T04:56:03.227Z,13.60
2023-04-14T04:58:33.196Z,14.13
2023-04-14T05:01:08.600Z,13.33
2023-04-14T05:03:38.333Z,15.67
2023-04-14T05:06:07.077Z,13.87
2023-04-14T05:09:02.196Z,12.00
2023-04-14T05:11:30.605Z,11.87
2023-04-14T05:13:59.343Z,11.77
2023-04-14T05:16:32.237Z,12.53
2023-04-14T05:19:00.967Z,11.37
2023-04-14T05:21:30.163Z,14.17
2023-04-14T05:23:59.255Z,12.33
2023-04-14T05:26:54.779Z,11.17
2023-04-14T05:29:24.178Z,9.63
2023-04-14T05:31:52.426Z,11.17
2023-04-14T05:34:20.876Z,12.23
2023-04-14T05:36:48.956Z,10.27
2023-04-14T05:39:17.375Z,8.90
2023-04-14T05:41:46.452Z,10.57
2023-04-14T05:44:14.753Z,11.63
2023-04-14T05:46:43.081Z,9.67
2023-04-14T05:49:13.037Z,8.87
2023-04-14T05:51:43.870Z,11.50
2023-04-14T05:54:14.836Z,11.90
2023-04-14T05:56:42.926Z,14.43
2023-04-14T05:59:16.663Z,11.63
2023-04-14T06:01:52.237Z,13.60
2023-04-14T06:04:22.264Z,11.70
2023-04-14T06:06:53.076Z,12.27
2023-04-14T06:09:23.673Z,10.10
2023-04-14T06:12:09.456Z,11.97
2023-04-14T06:14:38.325Z,10.07
2023-04-14T06:17:07.961Z,12.47
2023-04-14T06:19:37.444Z,11.73
2023-04-14T06:22:06.515Z,10.37
2023-04-14T06:24:35.647Z,9.90
2023-04-14T06:27:04.559Z,11.57
2023-04-14T06:29:33.940Z,10.50
2023-04-14T06:32:01.962Z,10.37
2023-04-14T06:34:33.249Z,12.13
2023-04-14T06:37:04.343Z,9.97
2023-04-14T06:39:32.323Z,14.57
2023-04-14T06:42:03.135Z,10.70
2023-04-14T06:44:33.045Z,10.63
2023-04-14T06:47:04.528Z,20.27
2023-04-14T06:49:34.240Z,10.13
2023-04-14T06:52:05.521Z,13.13
2023-04-14T06:54:35.172Z,10.23
2023-04-14T06:57:03.000Z,11.60
2023-04-14T06:59:32.796Z,10.87
2023-04-14T07:02:01.115Z,12.07
2023-04-14T07:04:29.622Z,13.90
2023-04-14T07:07:02.213Z,12.17
2023-04-14T07:09:30.640Z,12.83
2023-04-14T07:11:59.016Z,13.70
2023-04-14T07:14:27.261Z,11.93
2023-04-14T07:16:58.242Z,16.37
2023-04-14T07:19:26.835Z,11.40
2023-04-14T07:21:55.283Z,12.97
2023-04-14T07:24:24.957Z,13.57
2023-04-14T07:26:53.198Z,11.83
2023-04-14T07:29:21.442Z,12.17
2023-04-14T07:31:49.631Z,11.70
2023-04-14T07:34:18.601Z,13.37
2023-04-14T07:36:48.581Z,12.33
2023-04-14T07:39:17.143Z,13.07
2023-04-14T07:41:46.081Z,12.57
2023-04-14T07:44:14.600Z,14.83
2023-04-14T07:46:45.204Z,16.57
2023-04-14T07:49:13.592Z,18.87
2023-04-14T07:51:41.938Z,15.93
2023-04-14T07:54:10.273Z,16.50
2023-04-14T07:56:38.685Z,15.17
2023-04-14T07:59:06.935Z,15.13
2023-04-14T08:01:35.100Z,13.80
2023-04-14T08:04:08.563Z,14.33
2023-04-14T08:06:37.470Z,15.10
2023-04-14T08:09:07.306Z,13.53
2023-04-14T08:11:39.000Z,13.20
2023-04-14T08:14:06.794Z,14.20
2023-04-14T08:16:37.131Z,13.07
2023-04-14T08:19:05.423Z,12.07
2023-04-14T08:21:33.502Z,8.20
2023-04-14T08:24:01.794Z,9.37
2023-04-14T08:26:30.238Z,8.43
2023-04-14T08:28:58.194Z,6.60
2023-04-14T08:31:27.273Z,7.87
2023-04-14T08:33:55.981Z,9.23
2023-04-14T08:36:24.472Z,8.80
2023-04-14T08:38:53.851Z,8.40
2023-04-14T08:41:22.609Z,9.10
2023-04-14T08:43:50.939Z,9.07
2023-04-14T08:46:27.594Z,7.60
2023-04-14T08:49:02.333Z,10.53
2023-04-14T08:51:32.602Z,9.87
2023-04-14T08:54:05.637Z,11.67
2023-04-14T08:56:43.824Z,8.60
2023-04-14T08:59:12.107Z,8.60
2023-04-14T09:01:41.885Z,10.77
2023-04-14T09:04:10.610Z,11.93
2023-04-14T09:06:38.827Z,10.83
2023-04-14T09:09:08.105Z,9.40
2023-04-14T09:11:37.995Z,8.63
2023-04-14T09:14:06.725Z,7.03
2023-04-14T09:16:36.755Z,10.00
2023-04-14T09:19:06.868Z,8.30
2023-04-14T09:21:53.968Z,10.70
2023-04-14T09:24:34.382Z,9.13
2023-04-14T09:27:05.674Z,9.90
2023-04-14T09:29:33.895Z,8.93
2023-04-14T09:32:03.136Z,13.43
2023-04-14T09:34:32.710Z,10.20
2023-04-14T09:37:02.966Z,9.67
2023-04-14T09:39:39.191Z,9.37
2023-04-14T09:42:08.327Z,11.43
2023-04-14T09:44:53.627Z,8.30
2023-04-14T09:47:27.263Z,5.40
2023-04-14T09:50:04.010Z,6.93
2023-04-14T09:52:49.291Z,6.20
2023-04-14T09:55:17.866Z,5.13
2023-04-14T09:57:48.349Z,3.87
2023-04-14T10:00:24.701Z,5.43
2023-04-14T10:03:15.877Z,8.67
2023-04-14T10:05:48.507Z,7.80
2023-04-14T10:08:17.330Z,7.53
2023-04-14T10:10:45.717Z,6.83
2023-04-14T10:13:22.117Z,5.73
2023-04-14T10:15:50.572Z,5.40
2023-04-14T10:18:18.837Z,6.10
2023-04-14T10:20:50.628Z,9.33
2023-04-14T10:23:19.093Z,8.87
2023-04-14T10:25:49.933Z,9.63
2023-04-14T10:28:18.406Z,6.60
2023-04-14T10:30:47.693Z,9.10
2023-04-14T10:33:16.097Z,6.90
2023-04-14T10:35:47.105Z,7.30
2023-04-14T10:38:17.655Z,7.73
2023-04-14T10:40:47.469Z,7.17
2023-04-14T10:43:16.367Z,7.57
2023-04-14T10:45:57.541Z,8.30
2023-04-14T10:48:35.275Z,9.20
2023-04-14T10:51:06.099Z,8.27
2023-04-14T10:53:55.835Z,6.53
2023-04-14T10:56:26.237Z,6.60
2023-04-14T10:58:58.462Z,9.70
2023-04-14T11:01:32.960Z,6.77
2023-04-14T11:04:19.361Z,7.67
2023-04-14T11:06:57.468Z,9.33
2023-04-14T11:09:39.577Z,9.03
2023-04-14T11:12:33.629Z,8.50
2023-04-14T11:15:06.527Z,8.60
2023-04-14T11:17:40.220Z,10.00
2023-04-14T11:20:24.069Z,10.10
2023-04-14T11:22:54.837Z,7.93
2023-04-14T11:25:25.187Z,8.33
2023-04-14T11:27:54.272Z,7.23
2023-04-14T11:30:24.280Z,7.00
2023-04-14T11:32:58.146Z,7.00
2023-04-14T11:35:30.350Z,6.93
2023-04-14T11:38:00.231Z,5.57
2023-04-14T11:40:29.037Z,7.70
2023-04-14T11:43:01.389Z,6.73
2023-04-14T11:45:30.465Z,5.80
2023-04-14T11:48:06.555Z,7.87
2023-04-14T11:50:39.341Z,8.93
2023-04-14T11:53:13.322Z,7.03
2023-04-14T11:55:46.252Z,6.90
2023-04-14T11:58:17.462Z,8.87
2023-04-14T12:00:53.057Z,8.40
2023-04-14T12:03:40.034Z,8.37
2023-04-14T12:06:08.843Z,8.47
2023-04-14T12:08:39.855Z,8.87
2023-04-14T12:11:15.395Z,6.10
2023-04-14T12:13:44.933Z,7.13
2023-04-14T12:16:13.784Z,7.67
2023-04-14T12:18:48.552Z,6.77
2023-04-14T12:21:24.745Z,7.40
2023-04-14T12:23:52.761Z,6.67
2023-04-14T12:26:26.359Z,6.23
2023-04-14T12:28:59.435Z,8.27
2023-04-14T12:31:31.465Z,6.63
2023-04-14T12:34:04.042Z,7.23
2023-04-14T12:37:48.312Z,7.63
2023-04-14T12:39:22.566Z,7.00
2023-04-14T12:41:58.815Z,4.73
2023-04-14T12:44:26.823Z,6.10
2023-04-14T12:46:56.618Z,7.57
2023-04-14T12:49:39.112Z,8.80
2023-04-14T12:52:08.953Z,5.03
2023-04-14T12:54:52.297Z,5.60
2023-04-14T12:57:21.579Z,5.60
2023-04-14T12:59:52.702Z,4.60
2023-04-14T13:02:21.092Z,8.07
2023-04-14T13:04:50.328Z,4.63
2023-04-14T13:07:20.586Z,5.83
2023-04-14T13:09:51.733Z,4.77
2023-04-14T13:12:20.631Z,6.43
2023-04-14T13:14:49.798Z,4.93
2023-04-14T13:17:18.524Z,8.93
2023-04-14T13:19:46.820Z,5.93
2023-04-14T13:22:16.384Z,6.17
2023-04-14T13:24:50.669Z,4.33
2023-04-14T13:27:19.863Z,4.03
2023-04-14T13:29:48.475Z,3.80
2023-04-14T13:32:19.526Z,8.37
2023-04-14T13:34:52.063Z,4.50
2023-04-14T13:37:22.080Z,2.27
2023-04-14T13:39:51.927Z,4.93
2023-04-14T13:42:20.656Z,2.43
2023-04-14T13:44:50.467Z,6.63
2023-04-14T13:47:21.197Z,6.37
2023-04-14T13:49:50.059Z,5.83
2023-04-14T13:52:18.101Z,4.70
2023-04-14T13:54:47.780Z,5.47
2023-04-14T13:57:16.348Z,5.87
2023-04-14T13:59:45.174Z,5.03
2023-04-14T14:02:13.786Z,6.03
2023-04-14T14:04:43.902Z,6.47
2023-04-14T14:07:12.445Z,3.67
2023-04-14T14:09:40.509Z,11.37
2023-04-14T14:12:12.360Z,5.80
2023-04-14T14:14:41.712Z,4.77
2023-04-14T14:17:13.030Z,5.03
2023-04-14T14:19:41.687Z,1.80
2023-04-14T14:22:11.143Z,1.80
2023-04-14T14:25:17.792Z,1.40
2023-04-14T14:27:48.454Z,1.93
2023-04-14T14:30:17.441Z,2.37
2023-04-14T14:32:46.189Z,2.70
2023-04-14T14:35:14.479Z,2.07
2023-04-14T14:37:44.774Z,3.07
2023-04-14T14:40:13.933Z,6.10
2023-04-14T14:42:43.170Z,2.03
2023-04-14T14:45:11.604Z,3.40
2023-04-14T14:47:43.428Z,1.87
2023-04-14T14:50:14.198Z,2.10
2023-04-14T14:52:42.675Z,2.63
2023-04-14T14:55:13.754Z,3.40
2023-04-14T14:57:42.506Z,2.30
2023-04-14T15:00:11.904Z,1.60
2023-04-14T15:03:00.827Z,2.83
2023-04-14T15:05:33.785Z,2.17
2023-04-14T15:08:04.846Z,1.87
2023-04-14T15:10:38.675Z,1.83
2023-04-14T15:13:07.813Z,1.73
2023-04-14T15:15:39.916Z,2.00
2023-04-14T15:18:08.840Z,3.13
2023-04-14T15:20:38.082Z,3.03
2023-04-14T15:23:07.509Z,2.00
2023-04-14T15:25:38.410Z,2.10
2023-04-14T15:28:08.335Z,2.47
2023-04-14T15:30:40.422Z,3.80
2023-04-14T15:33:13.197Z,2.43
2023-04-14T15:35:42.639Z,2.33
2023-04-14T15:38:10.905Z,2.07
2023-04-14T15:40:41.091Z,1.80
2023-04-14T15:43:11.792Z,2.40
2023-04-14T15:45:42.872Z,2.67
2023-04-14T15:48:14.341Z,2.37
2023-04-14T15:50:44.333Z,3.53
2023-04-14T15:53:14.356Z,3.17
2023-04-14T15:55:43.987Z,2.73
2023-04-14T15:58:12.550Z,2.63
2023-04-14T16:00:41.221Z,5.60
2023-04-14T16:03:12.283Z,5.07
2023-04-14T16:05:42.355Z,1.53
2023-04-14T16:08:11.712Z,1.97
2023-04-14T16:10:43.073Z,1.63
2023-04-14T16:13:15.370Z,3.63
2023-04-14T16:15:46.927Z,3.20
2023-04-14T16:18:14.959Z,4.10
2023-04-14T16:20:43.089Z,1.97
2023-04-14T16:23:11.410Z,1.87
2023-04-14T16:25:44.559Z,5.20
2023-04-14T16:28:16.752Z,2.77
2023-04-14T16:30:46.493Z,2.00
2023-04-14T16:33:23.687Z,3.30
2023-04-14T16:35:53.170Z,2.03
2023-04-14T16:38:23.948Z,3.20
2023-04-14T16:40:58.819Z,3.73
2023-04-14T16:43:30.494Z,2.53
2023-04-14T16:46:03.498Z,4.83
2023-04-14T16:48:32.925Z,3.67
2023-04-14T16:51:08.764Z,2.80
2023-04-14T16:53:39.194Z,3.17
2023-04-14T16:56:13.268Z,6.33
2023-04-14T16:58:45.950Z,3.03
2023-04-14T17:01:15.737Z,1.67
2023-04-14T17:03:44.630Z,2.27
2023-04-14T17:06:12.941Z,1.43
2023-04-14T17:08:42.361Z,2.23
2023-04-14T17:11:11.438Z,1.93
2023-04-14T17:13:42.940Z,2.33
2023-04-14T17:16:12.231Z,1.97
2023-04-14T17:18:41.834Z,3.87
2023-04-14T17:21:10.147Z,9.23
2023-04-14T17:23:41.185Z,2.60
2023-04-14T17:26:12.984Z,3.53
2023-04-14T17:28:41.932Z,2.30
2023-04-14T17:31:16.954Z,3.40
2023-04-14T17:33:50.787Z,3.50
2023-04-14T17:36:19.019Z,3.43
2023-04-14T17:38:48.622Z,2.83
2023-04-14T17:41:16.845Z,3.57
2023-04-14T17:43:49.060Z,3.30
2023-04-14T17:46:17.894Z,2.27
2023-04-14T17:48:46.690Z,4.40
2023-04-14T17:51:14.679Z,1.70
2023-04-14T17:53:43.762Z,2.10
2023-04-14T17:56:13.177Z,1.57
2023-04-14T17:58:41.679Z,2.10
2023-04-14T18:01:13.184Z,3.63
2023-04-14T18:03:42.464Z,1.80
2023-04-14T18:06:11.451Z,2.40
2023-04-14T18:08:44.159Z,4.97
2023-04-14T18:11:13.664Z,5.23
2023-04-14T18:13:42.457Z,3.13
2023-04-14T18:16:10.960Z,2.43
2023-04-14T18:18:47.289Z,2.27
2023-04-14T18:21:18.750Z,2.70
2023-04-14T18:24:47.632Z,2.73
2023-04-14T18:26:40.047Z,1.90
2023-04-14T18:29:08.981Z,3.13
2023-04-14T18:31:37.699Z,3.57
2023-04-14T18:34:19.913Z,3.27
2023-04-14T18:36:48.594Z,6.57
2023-04-14T18:39:16.955Z,2.03
2023-04-14T18:41:46.771Z,2.23
2023-04-14T18:44:17.385Z,2.67
2023-04-14T18:46:50.759Z,1.90
2023-04-14T18:49:20.337Z,3.13
2023-04-14T18:51:48.923Z,1.63
2023-04-14T18:54:20.449Z,2.90
2023-04-14T18:56:49.572Z,1.63
2023-04-14T18:59:23.342Z,1.60
2023-04-14T19:01:55.287Z,2.00
2023-04-14T19:04:26.347Z,1.70
2023-04-14T19:06:57.691Z,1.77
2023-04-14T19:09:27.870Z,2.60
2023-04-14T19:11:59.378Z,1.63
2023-04-14T19:14:28.010Z,1.87
2023-04-14T19:16:56.407Z,1.40
2023-04-14T19:19:26.742Z,2.20
2023-04-14T19:21:55.783Z,2.00
2023-04-14T19:24:24.185Z,1.67
2023-04-14T19:26:53.246Z,2.57
2023-04-14T19:29:23.079Z,2.30
2023-04-14T19:31:53.406Z,2.37
2023-04-14T19:34:22.324Z,1.50
2023-04-14T19:36:50.884Z,2.20
2023-04-14T19:39:22.842Z,1.63
2023-04-14T19:41:53.253Z,2.27
2023-04-14T19:44:24.957Z,2.47
2023-04-14T19:46:53.439Z,2.17
2023-04-14T19:49:23.638Z,2.63
2023-04-14T19:51:53.322Z,1.83
2023-04-14T19:54:22.028Z,1.27
2023-04-14T19:56:50.862Z,1.10
2023-04-14T19:59:19.429Z,2.40
2023-04-14T20:01:51.846Z,1.10
2023-04-14T20:04:23.402Z,3.07
2023-04-14T20:06:51.985Z,1.10
2023-04-14T20:09:21.116Z,0.70
2023-04-14T20:11:49.135Z,0.80
2023-04-14T20:14:20.697Z,0.80
2023-04-14T20:16:53.902Z,0.73
2023-04-14T20:19:24.850Z,0.77
2023-04-14T20:21:53.647Z,0.80
2023-04-14T20:24:23.498Z,1.17
2023-04-14T20:26:54.496Z,1.27
2023-04-14T20:29:25.291Z,3.53
2023-04-14T20:31:53.904Z,1.93
2023-04-14T20:34:24.134Z,2.23
2023-04-14T20:36:55.326Z,1.20
2023-04-14T20:39:23.599Z,2.13
2023-04-14T20:41:55.536Z,3.37
2023-04-14T20:44:29.244Z,1.67
2023-04-14T20:47:01.381Z,2.63
2023-04-14T20:52:19.920Z,1.30
2023-04-14T20:54:47.822Z,2.33
2023-04-14T20:57:18.297Z,1.70
2023-04-14T20:59:46.435Z,3.30
2023-04-14T21:02:14.807Z,1.83
2023-04-14T21:04:43.897Z,1.83
2023-04-14T21:07:13.036Z,2.93
2023-04-14T21:09:45.019Z,2.50
2023-04-14T21:12:19.406Z,1.70
2023-04-14T21:15:29.674Z,3.67
2023-04-14T21:17:40.583Z,4.27
2023-04-14T21:20:12.515Z,1.87
2023-04-14T21:22:42.902Z,1.50
2023-04-14T21:25:11.125Z,2.00
2023-04-14T21:27:39.359Z,2.33
2023-04-14T21:30:09.630Z,5.53
2023-04-14T21:32:41.486Z,2.80
2023-04-14T21:35:10.058Z,3.83
2023-04-14T21:37:40.488Z,3.03
2023-04-14T21:40:10.387Z,3.03
2023-04-14T21:42:39.538Z,1.73
2023-04-14T21:45:11.110Z,2.27
2023-04-14T21:47:39.305Z,2.10
2023-04-14T21:50:08.456Z,2.07
2023-04-14T21:52:36.979Z,2.40
2023-04-14T21:55:06.122Z,4.37
2023-04-14T21:57:42.835Z,3.27
2023-04-14T22:00:20.666Z,2.47
2023-04-14T22:02:52.873Z,3.00
2023-04-14T22:05:24.229Z,2.33
2023-04-14T22:07:57.162Z,2.73
2023-04-14T22:10:34.336Z,5.80
2023-04-14T22:13:03.430Z,6.33
2023-04-14T22:15:32.076Z,3.10
2023-04-14T22:18:05.384Z,2.60
2023-04-14T22:20:35.546Z,3.63
2023-04-14T22:23:05.364Z,3.23
2023-04-14T22:25:35.878Z,3.13
2023-04-14T22:28:06.285Z,2.97
2023-04-14T22:30:34.872Z,3.17
2023-04-14T22:33:04.429Z,3.13
2023-04-14T22:35:33.217Z,2.60
2023-04-14T22:38:03.785Z,2.77
2023-04-14T22:40:33.278Z,3.30
2023-04-14T22:43:04.352Z,2.77
2023-04-14T22:45:32.577Z,3.53
2023-04-14T22:48:02.751Z,4.47
2023-04-14T22:50:31.668Z,2.97
2023-04-14T22:53:00.677Z,3.83
2023-04-14T22:55:29.841Z,5.63
2023-04-14T22:57:58.226Z,3.43
2023-04-14T23:00:27.130Z,3.73
2023-04-14T23:02:56.353Z,5.27
2023-04-14T23:05:24.703Z,3.63
2023-04-14T23:07:57.507Z,4.07
2023-04-14T23:10:29.163Z,2.63
2023-04-14T23:12:59.587Z,3.63
2023-04-14T23:15:29.720Z,3.47
2023-04-14T23:18:06.156Z,3.20
2023-04-14T23:20:36.734Z,3.20
2023-04-14T23:23:06.286Z,3.53
2023-04-14T23:25:36.963Z,4.87
2023-04-14T23:28:10.395Z,3.20
2023-04-14T23:30:38.872Z,3.30
2023-04-14T23:33:07.826Z,3.27
2023-04-14T23:35:39.389Z,3.13
2023-04-14T23:38:07.842Z,3.70
2023-04-14T23:40:38.425Z,4.60
2023-04-14T23:43:09.359Z,4.00
2023-04-14T23:45:38.552Z,2.50
2023-04-14T23:48:07.480Z,2.70
2023-04-14T23:51:01.488Z,2.30
2023-04-14T23:53:30.131Z,2.77
2023-04-14T23:56:00.695Z,6.67
2023-04-14T23:58:32.797Z,2.67
